sensor_id;sensor_type;location;lat;lon;timestamp;temperature;humidity
43679;DHT22;29279;50.858;4.392;2023-04-03T00:00:13;6.30;99.90
43679;DHT22;29279;50.858;4.392;2023-04-03T00:02:39;6.30;99.90
43679;DHT22;29279;50.858;4.392;2023-04-03T00:05:06;6.30;99.90
43679;DHT22;29279;50.858;4.392;2023-04-03T00:07:32;6.30;99.90
43679;DHT22;29279;50.858;4.392;2023-04-03T00:09:58;6.30;99.90
43679;DHT22;29279;50.858;4.392;2023-04-03T00:12:23;6.30;99.90
43679;DHT22;29279;50.858;4.392;2023-04-03T00:14:49;6.20;99.90
43679;DHT22;29279;50.858;4.392;2023-04-03T00:17:15;6.30;99.90
43679;DHT22;29279;50.858;4.392;2023-04-03T00:19:40;6.20;99.90
43679;DHT22;29279;50.858;4.392;2023-04-03T00:22:06;6.20;99.90
43679;DHT22;29279;50.858;4.392;2023-04-03T00:24:33;6.30;99.90
43679;DHT22;29279;50.858;4.392;2023-04-03T00:26:59;6.20;99.90
43679;DHT22;29279;50.858;4.392;2023-04-03T00:29:24;6.20;99.90
43679;DHT22;29279;50.858;4.392;2023-04-03T00:31:50;6.20;99.90
43679;DHT22;29279;50.858;4.392;2023-04-03T00:34:17;6.20;99.90
43679;DHT22;29279;50.858;4.392;2023-04-03T00:36:43;6.20;99.90
43679;DHT22;29279;50.858;4.392;2023-04-03T00:39:08;6.10;99.90
43679;DHT22;29279;50.858;4.392;2023-04-03T00:41:34;6.10;99.90
43679;DHT22;29279;50.858;4.392;2023-04-03T00:44:00;6.10;99.90
43679;DHT22;29279;50.858;4.392;2023-04-03T00:46:26;6.20;99.90
43679;DHT22;29279;50.858;4.392;2023-04-03T00:48:51;6.10;99.90
43679;DHT22;29279;50.858;4.392;2023-04-03T00:51:20;6.10;99.90
43679;DHT22;29279;50.858;4.392;2023-04-03T00:54:09;6.00;99.90
43679;DHT22;29279;50.858;4.392;2023-04-03T00:56:36;6.00;99.90
43679;DHT22;29279;50.858;4.392;2023-04-03T00:59:15;6.00;99.90
43679;DHT22;29279;50.858;4.392;2023-04-03T01:01:42;6.00;99.90
43679;DHT22;29279;50.858;4.392;2023-04-03T01:06:55;6.00;99.90
43679;DHT22;29279;50.858;4.392;2023-04-03T01:09:23;5.90;99.90
43679;DHT22;29279;50.858;4.392;2023-04-03T01:11:48;5.90;99.90
43679;DHT22;29279;50.858;4.392;2023-04-03T01:14:14;5.80;99.90
43679;DHT22;29279;50.858;4.392;2023-04-03T01:16:40;5.80;99.90
43679;DHT22;29279;50.858;4.392;2023-04-03T01:19:10;5.80;99.90
43679;DHT22;29279;50.858;4.392;2023-04-03T01:21:56;5.80;99.90
43679;DHT22;29279;50.858;4.392;2023-04-03T01:24:36;5.70;99.90
43679;DHT22;29279;50.858;4.392;2023-04-03T01:27:06;5.70;99.90
43679;DHT22;29279;50.858;4.392;2023-04-03T01:29:32;5.70;99.90
43679;DHT22;29279;50.858;4.392;2023-04-03T01:32:00;5.70;99.90
43679;DHT22;29279;50.858;4.392;2023-04-03T01:34:27;5.70;99.90
43679;DHT22;29279;50.858;4.392;2023-04-03T01:36:53;5.80;99.90
43679;DHT22;29279;50.858;4.392;2023-04-03T01:39:19;5.70;99.90
43679;DHT22;29279;50.858;4.392;2023-04-03T01:41:45;5.70;99.90
43679;DHT22;29279;50.858;4.392;2023-04-03T01:44:11;5.60;99.90
43679;DHT22;29279;50.858;4.392;2023-04-03T01:46:37;5.70;99.90
43679;DHT22;29279;50.858;4.392;2023-04-03T01:49:04;5.60;99.90
43679;DHT22;29279;50.858;4.392;2023-04-03T01:51:30;5.60;99.90
43679;DHT22;29279;50.858;4.392;2023-04-03T01:53:56;5.60;99.90
43679;DHT22;29279;50.858;4.392;2023-04-03T01:56:21;5.60;99.90
43679;DHT22;29279;50.858;4.392;2023-04-03T01:58:47;5.60;99.90
43679;DHT22;29279;50.858;4.392;2023-04-03T02:01:13;5.60;99.90
43679;DHT22;29279;50.858;4.392;2023-04-03T02:03:39;5.50;99.90
43679;DHT22;29279;50.858;4.392;2023-04-03T02:06:05;5.50;99.90
43679;DHT22;29279;50.858;4.392;2023-04-03T02:08:31;5.50;99.90
43679;DHT22;29279;50.858;4.392;2023-04-03T02:10:56;5.40;99.90
43679;DHT22;29279;50.858;4.392;2023-04-03T02:13:22;5.40;99.90
43679;DHT22;29279;50.858;4.392;2023-04-03T02:15:48;5.40;99.90
43679;DHT22;29279;50.858;4.392;2023-04-03T02:18:14;5.40;99.90
43679;DHT22;29279;50.858;4.392;2023-04-03T02:20:40;5.30;99.90
43679;DHT22;29279;50.858;4.392;2023-04-03T02:23:06;5.30;99.90
43679;DHT22;29279;50.858;4.392;2023-04-03T02:25:32;5.30;99.90
43679;DHT22;29279;50.858;4.392;2023-04-03T02:27:58;5.30;99.90
43679;DHT22;29279;50.858;4.392;2023-04-03T02:30:24;5.30;99.90
43679;DHT22;29279;50.858;4.392;2023-04-03T02:32:50;5.30;99.90
43679;DHT22;29279;50.858;4.392;2023-04-03T02:35:16;5.30;99.90
43679;DHT22;29279;50.858;4.392;2023-04-03T02:37:42;5.30;99.90
43679;DHT22;29279;50.858;4.392;2023-04-03T02:40:08;5.30;99.90
43679;DHT22;29279;50.858;4.392;2023-04-03T02:42:34;5.30;99.90
43679;DHT22;29279;50.858;4.392;2023-04-03T02:45:00;5.20;99.90
43679;DHT22;29279;50.858;4.392;2023-04-03T02:47:28;5.20;99.90
43679;DHT22;29279;50.858;4.392;2023-04-03T02:49:54;5.20;99.90
43679;DHT22;29279;50.858;4.392;2023-04-03T02:52:20;5.30;99.90
43679;DHT22;29279;50.858;4.392;2023-04-03T02:54:46;5.20;99.90
43679;DHT22;29279;50.858;4.392;2023-04-03T02:57:11;5.20;99.90
43679;DHT22;29279;50.858;4.392;2023-04-03T02:59:37;5.10;99.90
43679;DHT22;29279;50.858;4.392;2023-04-03T03:02:09;5.20;99.90
43679;DHT22;29279;50.858;4.392;2023-04-03T03:04:35;5.30;99.90
43679;DHT22;29279;50.858;4.392;2023-04-03T03:07:01;5.20;99.90
43679;DHT22;29279;50.858;4.392;2023-04-03T03:09:27;5.10;99.90
43679;DHT22;29279;50.858;4.392;2023-04-03T03:11:55;5.10;99.90
43679;DHT22;29279;50.858;4.392;2023-04-03T03:14:20;5.10;99.90
43679;DHT22;29279;50.858;4.392;2023-04-03T03:16:46;5.10;99.90
43679;DHT22;29279;50.858;4.392;2023-04-03T03:19:12;5.20;99.90
43679;DHT22;29279;50.858;4.392;2023-04-03T03:21:37;5.10;99.90
43679;DHT22;29279;50.858;4.392;2023-04-03T03:24:03;5.10;99.90
43679;DHT22;29279;50.858;4.392;2023-04-03T03:26:29;5.10;99.90
43679;DHT22;29279;50.858;4.392;2023-04-03T03:28:55;5.00;99.90
43679;DHT22;29279;50.858;4.392;2023-04-03T03:31:21;5.00;99.90
43679;DHT22;29279;50.858;4.392;2023-04-03T03:33:46;5.10;99.90
43679;DHT22;29279;50.858;4.392;2023-04-03T03:36:12;5.00;99.90
43679;DHT22;29279;50.858;4.392;2023-04-03T03:38:38;5.00;99.90
43679;DHT22;29279;50.858;4.392;2023-04-03T03:41:04;5.00;99.90
43679;DHT22;29279;50.858;4.392;2023-04-03T03:43:29;5.00;99.90
43679;DHT22;29279;50.858;4.392;2023-04-03T03:45:55;5.00;99.90
43679;DHT22;29279;50.858;4.392;2023-04-03T03:48:23;5.00;99.90
43679;DHT22;29279;50.858;4.392;2023-04-03T03:50:48;5.10;99.90
43679;DHT22;29279;50.858;4.392;2023-04-03T03:53:14;5.10;99.90
43679;DHT22;29279;50.858;4.392;2023-04-03T03:55:40;5.10;99.90
43679;DHT22;29279;50.858;4.392;2023-04-03T03:58:07;5.10;99.90
43679;DHT22;29279;50.858;4.392;2023-04-03T04:00:32;5.00;99.90
43679;DHT22;29279;50.858;4.392;2023-04-03T04:02:58;5.10;99.90
43679;DHT22;29279;50.858;4.392;2023-04-03T04:05:24;5.10;99.90
43679;DHT22;29279;50.858;4.392;2023-04-03T04:07:49;5.00;99.90
43679;DHT22;29279;50.858;4.392;2023-04-03T04:10:16;5.00;99.90
43679;DHT22;29279;50.858;4.392;2023-04-03T04:12:42;4.90;99.90
43679;DHT22;29279;50.858;4.392;2023-04-03T04:15:08;5.00;99.90
43679;DHT22;29279;50.858;4.392;2023-04-03T04:17:34;5.00;99.90
43679;DHT22;29279;50.858;4.392;2023-04-03T04:20:01;4.90;99.90
43679;DHT22;29279;50.858;4.392;2023-04-03T04:22:27;4.90;99.90
43679;DHT22;29279;50.858;4.392;2023-04-03T04:24:53;4.90;99.90
43679;DHT22;29279;50.858;4.392;2023-04-03T04:27:19;4.90;99.90
43679;DHT22;29279;50.858;4.392;2023-04-03T04:29:44;5.00;99.90
43679;DHT22;29279;50.858;4.392;2023-04-03T04:32:10;5.00;99.90
43679;DHT22;29279;50.858;4.392;2023-04-03T04:34:36;4.90;99.90
43679;DHT22;29279;50.858;4.392;2023-04-03T04:37:02;4.90;99.90
43679;DHT22;29279;50.858;4.392;2023-04-03T04:39:27;4.90;99.90
43679;DHT22;29279;50.858;4.392;2023-04-03T04:41:53;4.90;99.90
43679;DHT22;29279;50.858;4.392;2023-04-03T04:44:19;4.80;99.90
43679;DHT22;29279;50.858;4.392;2023-04-03T04:46:45;4.80;99.90
43679;DHT22;29279;50.858;4.392;2023-04-03T04:49:11;4.80;99.90
43679;DHT22;29279;50.858;4.392;2023-04-03T04:51:37;4.80;99.90
43679;DHT22;29279;50.858;4.392;2023-04-03T04:54:02;4.70;99.90
43679;DHT22;29279;50.858;4.392;2023-04-03T04:56:28;4.70;99.90
43679;DHT22;29279;50.858;4.392;2023-04-03T04:58:54;4.70;99.90
43679;DHT22;29279;50.858;4.392;2023-04-03T05:01:19;4.80;99.90
43679;DHT22;29279;50.858;4.392;2023-04-03T05:03:45;4.80;99.90
43679;DHT22;29279;50.858;4.392;2023-04-03T05:06:11;4.70;99.90
43679;DHT22;29279;50.858;4.392;2023-04-03T05:08:37;4.70;99.90
43679;DHT22;29279;50.858;4.392;2023-04-03T05:11:02;4.70;99.90
43679;DHT22;29279;50.858;4.392;2023-04-03T05:13:28;4.70;99.90
43679;DHT22;29279;50.858;4.392;2023-04-03T05:15:54;4.70;99.90
43679;DHT22;29279;50.858;4.392;2023-04-03T05:18:19;4.70;99.90
43679;DHT22;29279;50.858;4.392;2023-04-03T05:20:47;4.70;99.90
43679;DHT22;29279;50.858;4.392;2023-04-03T05:23:13;4.70;99.90
43679;DHT22;29279;50.858;4.392;2023-04-03T05:25:39;4.70;99.90
43679;DHT22;29279;50.858;4.392;2023-04-03T05:28:04;4.60;99.90
43679;DHT22;29279;50.858;4.392;2023-04-03T05:30:30;4.60;99.90
43679;DHT22;29279;50.858;4.392;2023-04-03T05:32:56;4.50;99.90
43679;DHT22;29279;50.858;4.392;2023-04-03T05:35:22;4.60;99.90
43679;DHT22;29279;50.858;4.392;2023-04-03T05:37:48;4.60;99.90
43679;DHT22;29279;50.858;4.392;2023-04-03T05:40:13;4.60;99.90
43679;DHT22;29279;50.858;4.392;2023-04-03T05:42:39;4.50;99.90
43679;DHT22;29279;50.858;4.392;2023-04-03T05:45:05;4.60;99.90
43679;DHT22;29279;50.858;4.392;2023-04-03T05:47:31;4.50;99.90
43679;DHT22;29279;50.858;4.392;2023-04-03T05:49:57;4.60;99.90
43679;DHT22;29279;50.858;4.392;2023-04-03T05:52:29;4.60;99.90
43679;DHT22;29279;50.858;4.392;2023-04-03T05:54:56;4.60;99.90
43679;DHT22;29279;50.858;4.392;2023-04-03T05:57:22;4.70;99.90
43679;DHT22;29279;50.858;4.392;2023-04-03T05:59:48;4.80;99.90
43679;DHT22;29279;50.858;4.392;2023-04-03T06:02:17;4.80;99.90
43679;DHT22;29279;50.858;4.392;2023-04-03T06:04:43;4.90;99.90
43679;DHT22;29279;50.858;4.392;2023-04-03T06:07:12;5.00;99.90
43679;DHT22;29279;50.858;4.392;2023-04-03T06:09:38;5.00;99.90
43679;DHT22;29279;50.858;4.392;2023-04-03T06:12:04;5.00;99.90
43679;DHT22;29279;50.858;4.392;2023-04-03T06:14:30;5.00;99.90
43679;DHT22;29279;50.858;4.392;2023-04-03T06:16:56;5.10;99.90
43679;DHT22;29279;50.858;4.392;2023-04-03T06:19:22;5.10;99.90
43679;DHT22;29279;50.858;4.392;2023-04-03T06:21:48;5.20;99.90
43679;DHT22;29279;50.858;4.392;2023-04-03T06:24:15;5.20;99.90
43679;DHT22;29279;50.858;4.392;2023-04-03T06:26:42;5.20;99.90
43679;DHT22;29279;50.858;4.392;2023-04-03T06:29:08;5.20;99.90
43679;DHT22;29279;50.858;4.392;2023-04-03T06:31:34;5.20;99.90
43679;DHT22;29279;50.858;4.392;2023-04-03T06:34:01;5.30;99.90
43679;DHT22;29279;50.858;4.392;2023-04-03T06:36:28;5.40;99.90
43679;DHT22;29279;50.858;4.392;2023-04-03T06:38:55;5.40;99.90
43679;DHT22;29279;50.858;4.392;2023-04-03T06:41:21;5.50;99.90
43679;DHT22;29279;50.858;4.392;2023-04-03T06:43:47;5.50;99.90
43679;DHT22;29279;50.858;4.392;2023-04-03T06:46:18;5.60;99.90
43679;DHT22;29279;50.858;4.392;2023-04-03T06:48:44;5.70;99.90
43679;DHT22;29279;50.858;4.392;2023-04-03T06:51:20;5.70;99.90
43679;DHT22;29279;50.858;4.392;2023-04-03T06:53:48;5.80;99.90
43679;DHT22;29279;50.858;4.392;2023-04-03T06:56:15;5.80;99.90
43679;DHT22;29279;50.858;4.392;2023-04-03T06:58:41;5.80;99.90
43679;DHT22;29279;50.858;4.392;2023-04-03T07:01:09;5.90;99.90
43679;DHT22;29279;50.858;4.392;2023-04-03T07:03:36;6.00;99.90
43679;DHT22;29279;50.858;4.392;2023-04-03T07:06:03;6.00;99.90
43679;DHT22;29279;50.858;4.392;2023-04-03T07:08:29;6.10;99.90
43679;DHT22;29279;50.858;4.392;2023-04-03T07:10:55;6.10;99.90
43679;DHT22;29279;50.858;4.392;2023-04-03T07:13:20;6.20;99.90
43679;DHT22;29279;50.858;4.392;2023-04-03T07:15:46;6.10;99.90
43679;DHT22;29279;50.858;4.392;2023-04-03T07:18:12;6.10;99.90
43679;DHT22;29279;50.858;4.392;2023-04-03T07:20:38;6.10;99.90
43679;DHT22;29279;50.858;4.392;2023-04-03T07:23:04;6.00;99.90
43679;DHT22;29279;50.858;4.392;2023-04-03T07:25:30;6.20;99.90
43679;DHT22;29279;50.858;4.392;2023-04-03T07:27:57;6.20;99.90
43679;DHT22;29279;50.858;4.392;2023-04-03T07:30:23;6.30;99.90
43679;DHT22;29279;50.858;4.392;2023-04-03T07:32:49;6.40;99.90
43679;DHT22;29279;50.858;4.392;2023-04-03T07:35:15;6.40;99.90
43679;DHT22;29279;50.858;4.392;2023-04-03T07:37:41;6.40;99.90
43679;DHT22;29279;50.858;4.392;2023-04-03T07:40:08;6.40;99.90
43679;DHT22;29279;50.858;4.392;2023-04-03T07:42:34;6.60;99.90
43679;DHT22;29279;50.858;4.392;2023-04-03T07:45:00;6.60;99.90
43679;DHT22;29279;50.858;4.392;2023-04-03T07:47:27;6.70;99.90
43679;DHT22;29279;50.858;4.392;2023-04-03T07:49:53;6.80;99.90
43679;DHT22;29279;50.858;4.392;2023-04-03T07:52:19;6.80;99.90
43679;DHT22;29279;50.858;4.392;2023-04-03T07:54:45;6.90;99.90
43679;DHT22;29279;50.858;4.392;2023-04-03T07:57:12;7.00;99.90
43679;DHT22;29279;50.858;4.392;2023-04-03T07:59:38;7.10;99.90
43679;DHT22;29279;50.858;4.392;2023-04-03T08:02:05;7.30;99.90
43679;DHT22;29279;50.858;4.392;2023-04-03T08:04:30;7.30;99.90
43679;DHT22;29279;50.858;4.392;2023-04-03T08:06:56;7.50;99.90
43679;DHT22;29279;50.858;4.392;2023-04-03T08:09:22;7.70;99.90
43679;DHT22;29279;50.858;4.392;2023-04-03T08:11:48;7.70;99.90
43679;DHT22;29279;50.858;4.392;2023-04-03T08:14:15;7.80;99.90
43679;DHT22;29279;50.858;4.392;2023-04-03T08:16:43;7.90;99.90
43679;DHT22;29279;50.858;4.392;2023-04-03T08:19:09;8.00;99.90
43679;DHT22;29279;50.858;4.392;2023-04-03T08:21:36;8.20;99.90
43679;DHT22;29279;50.858;4.392;2023-04-03T08:24:02;8.20;99.90
43679;DHT22;29279;50.858;4.392;2023-04-03T08:26:28;8.30;99.90
43679;DHT22;29279;50.858;4.392;2023-04-03T08:28:54;8.40;99.90
43679;DHT22;29279;50.858;4.392;2023-04-03T08:31:20;8.40;99.90
43679;DHT22;29279;50.858;4.392;2023-04-03T08:33:46;8.50;99.90
43679;DHT22;29279;50.858;4.392;2023-04-03T08:36:22;8.60;99.90
43679;DHT22;29279;50.858;4.392;2023-04-03T08:38:49;8.70;99.90
43679;DHT22;29279;50.858;4.392;2023-04-03T08:49:33;9.40;99.90
43679;DHT22;29279;50.858;4.392;2023-04-03T08:52:02;9.70;99.90
43679;DHT22;29279;50.858;4.392;2023-04-03T08:54:48;9.90;99.90
43679;DHT22;29279;50.858;4.392;2023-04-03T08:57:14;10.10;99.90
43679;DHT22;29279;50.858;4.392;2023-04-03T08:59:40;10.30;99.90
43679;DHT22;29279;50.858;4.392;2023-04-03T09:02:34;10.60;99.90
43679;DHT22;29279;50.858;4.392;2023-04-03T09:05:05;11.00;99.90
43679;DHT22;29279;50.858;4.392;2023-04-03T09:07:42;11.10;99.90
43679;DHT22;29279;50.858;4.392;2023-04-03T09:10:12;11.20;99.90
43679;DHT22;29279;50.858;4.392;2023-04-03T09:12:42;11.60;99.90
43679;DHT22;29279;50.858;4.392;2023-04-03T09:23:12;12.90;99.90
43679;DHT22;29279;50.858;4.392;2023-04-03T09:25:40;13.60;99.90
43679;DHT22;29279;50.858;4.392;2023-04-03T09:28:06;14.20;99.20
43679;DHT22;29279;50.858;4.392;2023-04-03T09:30:35;14.90;96.60
43679;DHT22;29279;50.858;4.392;2023-04-03T09:33:01;15.60;95.60
43679;DHT22;29279;50.858;4.392;2023-04-03T09:35:35;16.20;95.10
43679;DHT22;29279;50.858;4.392;2023-04-03T09:40:41;17.50;93.50
43679;DHT22;29279;50.858;4.392;2023-04-03T09:43:20;18.00;91.50
43679;DHT22;29279;50.858;4.392;2023-04-03T09:45:47;18.80;90.10
43679;DHT22;29279;50.858;4.392;2023-04-03T09:48:15;19.40;85.20
43679;DHT22;29279;50.858;4.392;2023-04-03T09:51:01;19.50;84.90
43679;DHT22;29279;50.858;4.392;2023-04-03T09:56:02;19.90;88.80
43679;DHT22;29279;50.858;4.392;2023-04-03T09:58:34;20.80;82.80
43679;DHT22;29279;50.858;4.392;2023-04-03T10:01:02;21.10;76.30
43679;DHT22;29279;50.858;4.392;2023-04-03T10:03:31;21.30;74.30
43679;DHT22;29279;50.858;4.392;2023-04-03T10:05:58;21.50;75.60
43679;DHT22;29279;50.858;4.392;2023-04-03T10:08:28;22.00;72.10
43679;DHT22;29279;50.858;4.392;2023-04-03T10:13:56;23.10;70.40
43679;DHT22;29279;50.858;4.392;2023-04-03T10:16:39;23.40;66.80
43679;DHT22;29279;50.858;4.392;2023-04-03T10:19:34;23.60;66.20
43679;DHT22;29279;50.858;4.392;2023-04-03T10:22:15;23.80;66.40
43679;DHT22;29279;50.858;4.392;2023-04-03T10:25:01;24.30;65.10
43679;DHT22;29279;50.858;4.392;2023-04-03T10:38:38;23.90;64.20
43679;DHT22;29279;50.858;4.392;2023-04-03T10:41:12;24.10;60.00
43679;DHT22;29279;50.858;4.392;2023-04-03T10:49:19;25.10;59.00
43679;DHT22;29279;50.858;4.392;2023-04-03T10:51:48;25.30;55.20
43679;DHT22;29279;50.858;4.392;2023-04-03T10:54:20;25.70;54.40
43679;DHT22;29279;50.858;4.392;2023-04-03T10:56:55;24.00;59.10
43679;DHT22;29279;50.858;4.392;2023-04-03T10:59:32;24.10;58.70
43679;DHT22;29279;50.858;4.392;2023-04-03T11:02:04;24.40;56.70
43679;DHT22;29279;50.858;4.392;2023-04-03T11:04:35;25.10;55.40
43679;DHT22;29279;50.858;4.392;2023-04-03T11:07:10;25.60;55.40
43679;DHT22;29279;50.858;4.392;2023-04-03T11:09:41;26.00;54.70
43679;DHT22;29279;50.858;4.392;2023-04-03T11:12:23;25.90;52.10
43679;DHT22;29279;50.858;4.392;2023-04-03T11:14:51;25.40;51.70
43679;DHT22;29279;50.858;4.392;2023-04-03T11:17:22;25.70;51.50
43679;DHT22;29279;50.858;4.392;2023-04-03T11:20:24;26.00;55.20
43679;DHT22;29279;50.858;4.392;2023-04-03T11:23:19;25.80;52.30
43679;DHT22;29279;50.858;4.392;2023-04-03T11:25:50;25.50;52.50
43679;DHT22;29279;50.858;4.392;2023-04-03T11:28:18;25.50;52.00
43679;DHT22;29279;50.858;4.392;2023-04-03T11:31:05;25.50;52.80
43679;DHT22;29279;50.858;4.392;2023-04-03T11:36:47;25.70;54.10
43679;DHT22;29279;50.858;4.392;2023-04-03T11:39:35;26.10;52.60
43679;DHT22;29279;50.858;4.392;2023-04-03T11:42:38;26.00;51.00
43679;DHT22;29279;50.858;4.392;2023-04-03T11:50:41;25.30;51.90
43679;DHT22;29279;50.858;4.392;2023-04-03T12:00:49;26.30;49.40
43679;DHT22;29279;50.858;4.392;2023-04-03T12:37:39;25.80;45.80
43679;DHT22;29279;50.858;4.392;2023-04-03T12:43:05;25.00;47.40
43679;DHT22;29279;50.858;4.392;2023-04-03T12:46:42;24.90;46.00
43679;DHT22;29279;50.858;4.392;2023-04-03T12:51:38;24.70;47.60
43679;DHT22;29279;50.858;4.392;2023-04-03T12:54:38;25.00;46.60
43679;DHT22;29279;50.858;4.392;2023-04-03T12:59:37;25.40;46.80
43679;DHT22;29279;50.858;4.392;2023-04-03T13:02:27;25.20;43.80
43679;DHT22;29279;50.858;4.392;2023-04-03T13:04:57;25.00;44.90
43679;DHT22;29279;50.858;4.392;2023-04-03T13:12:35;25.90;43.90
43679;DHT22;29279;50.858;4.392;2023-04-03T13:15:16;25.50;48.80
43679;DHT22;29279;50.858;4.392;2023-04-03T13:17:43;25.70;43.40
43679;DHT22;29279;50.858;4.392;2023-04-03T13:20:23;26.10;45.30
43679;DHT22;29279;50.858;4.392;2023-04-03T13:22:58;26.40;43.20
43679;DHT22;29279;50.858;4.392;2023-04-03T13:25:29;26.30;43.00
43679;DHT22;29279;50.858;4.392;2023-04-03T13:27:57;26.30;42.90
43679;DHT22;29279;50.858;4.392;2023-04-03T13:30:30;25.70;42.80
43679;DHT22;29279;50.858;4.392;2023-04-03T13:32:59;25.60;43.50
43679;DHT22;29279;50.858;4.392;2023-04-03T13:35:34;25.70;41.70
43679;DHT22;29279;50.858;4.392;2023-04-03T13:40:57;25.10;43.50
43679;DHT22;29279;50.858;4.392;2023-04-03T13:43:28;25.60;42.70
43679;DHT22;29279;50.858;4.392;2023-04-03T13:48:25;25.70;44.20
43679;DHT22;29279;50.858;4.392;2023-04-03T13:51:03;25.60;44.00
43679;DHT22;29279;50.858;4.392;2023-04-03T13:53:31;25.40;43.20
43679;DHT22;29279;50.858;4.392;2023-04-03T13:56:05;25.60;43.30
43679;DHT22;29279;50.858;4.392;2023-04-03T13:58:32;25.20;45.30
43679;DHT22;29279;50.858;4.392;2023-04-03T14:01:19;25.00;42.80
43679;DHT22;29279;50.858;4.392;2023-04-03T14:03:58;24.90;44.30
43679;DHT22;29279;50.858;4.392;2023-04-03T14:06:25;24.80;42.10
43679;DHT22;29279;50.858;4.392;2023-04-03T14:08:51;24.90;44.70
43679;DHT22;29279;50.858;4.392;2023-04-03T14:11:28;25.50;44.00
43679;DHT22;29279;50.858;4.392;2023-04-03T14:13:55;25.20;42.10
43679;DHT22;29279;50.858;4.392;2023-04-03T14:16:26;25.00;42.40
43679;DHT22;29279;50.858;4.392;2023-04-03T14:18:53;24.50;43.60
43679;DHT22;29279;50.858;4.392;2023-04-03T14:21:20;24.60;43.80
43679;DHT22;29279;50.858;4.392;2023-04-03T14:23:47;24.80;44.50
43679;DHT22;29279;50.858;4.392;2023-04-03T14:26:15;24.70;42.70
43679;DHT22;29279;50.858;4.392;2023-04-03T14:28:48;24.00;42.90
43679;DHT22;29279;50.858;4.392;2023-04-03T14:31:15;23.60;44.00
43679;DHT22;29279;50.858;4.392;2023-04-03T14:33:42;22.90;46.80
43679;DHT22;29279;50.858;4.392;2023-04-03T14:36:22;22.70;46.20
43679;DHT22;29279;50.858;4.392;2023-04-03T14:38:50;22.20;46.30
43679;DHT22;29279;50.858;4.392;2023-04-03T14:41:19;21.80;49.60
43679;DHT22;29279;50.858;4.392;2023-04-03T14:43:46;21.60;46.50
43679;DHT22;29279;50.858;4.392;2023-04-03T14:48:48;21.20;50.60
43679;DHT22;29279;50.858;4.392;2023-04-03T14:51:14;21.10;46.10
43679;DHT22;29279;50.858;4.392;2023-04-03T14:53:41;20.80;45.70
43679;DHT22;29279;50.858;4.392;2023-04-03T14:56:19;20.60;50.30
43679;DHT22;29279;50.858;4.392;2023-04-03T14:58:55;20.40;49.20
43679;DHT22;29279;50.858;4.392;2023-04-03T15:01:22;20.40;47.50
43679;DHT22;29279;50.858;4.392;2023-04-03T15:03:47;20.00;52.70
43679;DHT22;29279;50.858;4.392;2023-04-03T15:06:14;19.60;47.70
43679;DHT22;29279;50.858;4.392;2023-04-03T15:08:41;19.10;49.70
43679;DHT22;29279;50.858;4.392;2023-04-03T15:11:09;18.80;52.50
43679;DHT22;29279;50.858;4.392;2023-04-03T15:13:35;18.50;48.50
43679;DHT22;29279;50.858;4.392;2023-04-03T15:16:01;18.30;47.20
43679;DHT22;29279;50.858;4.392;2023-04-03T15:18:31;18.10;49.30
43679;DHT22;29279;50.858;4.392;2023-04-03T15:20:58;17.90;49.80
43679;DHT22;29279;50.858;4.392;2023-04-03T15:23:23;17.50;49.00
43679;DHT22;29279;50.858;4.392;2023-04-03T15:25:53;17.60;54.10
43679;DHT22;29279;50.858;4.392;2023-04-03T15:28:24;17.50;50.50
43679;DHT22;29279;50.858;4.392;2023-04-03T15:30:50;17.30;53.80
43679;DHT22;29279;50.858;4.392;2023-04-03T15:33:16;17.30;48.50
43679;DHT22;29279;50.858;4.392;2023-04-03T15:35:42;17.20;49.50
43679;DHT22;29279;50.858;4.392;2023-04-03T15:38:08;16.90;50.70
43679;DHT22;29279;50.858;4.392;2023-04-03T15:40:34;16.80;51.30
43679;DHT22;29279;50.858;4.392;2023-04-03T15:43:00;16.80;49.10
43679;DHT22;29279;50.858;4.392;2023-04-03T15:45:28;16.50;50.10
43679;DHT22;29279;50.858;4.392;2023-04-03T15:47:55;16.30;51.40
43679;DHT22;29279;50.858;4.392;2023-04-03T15:50:21;16.20;53.20
43679;DHT22;29279;50.858;4.392;2023-04-03T15:52:49;16.20;54.50
43679;DHT22;29279;50.858;4.392;2023-04-03T15:55:20;16.10;51.40
43679;DHT22;29279;50.858;4.392;2023-04-03T15:57:46;16.00;49.90
43679;DHT22;29279;50.858;4.392;2023-04-03T16:00:12;15.80;53.70
43679;DHT22;29279;50.858;4.392;2023-04-03T16:02:38;15.50;54.30
43679;DHT22;29279;50.858;4.392;2023-04-03T16:05:04;15.50;53.20
43679;DHT22;29279;50.858;4.392;2023-04-03T16:07:30;15.70;51.60
43679;DHT22;29279;50.858;4.392;2023-04-03T16:09:56;15.60;51.10
43679;DHT22;29279;50.858;4.392;2023-04-03T16:12:22;15.50;53.20
43679;DHT22;29279;50.858;4.392;2023-04-03T16:14:47;15.60;51.40
43679;DHT22;29279;50.858;4.392;2023-04-03T16:17:13;15.50;53.30
43679;DHT22;29279;50.858;4.392;2023-04-03T16:19:39;15.40;52.40
43679;DHT22;29279;50.858;4.392;2023-04-03T16:22:05;15.50;52.00
43679;DHT22;29279;50.858;4.392;2023-04-03T16:24:31;15.60;51.90
43679;DHT22;29279;50.858;4.392;2023-04-03T16:26:57;15.40;55.90
43679;DHT22;29279;50.858;4.392;2023-04-03T16:29:23;15.30;55.00
43679;DHT22;29279;50.858;4.392;2023-04-03T16:31:49;15.30;53.40
43679;DHT22;29279;50.858;4.392;2023-04-03T16:34:15;15.20;55.10
43679;DHT22;29279;50.858;4.392;2023-04-03T16:36:41;15.00;57.70
43679;DHT22;29279;50.858;4.392;2023-04-03T16:39:07;15.10;57.60
43679;DHT22;29279;50.858;4.392;2023-04-03T16:41:35;15.00;54.80
43679;DHT22;29279;50.858;4.392;2023-04-03T16:44:01;14.90;55.20
43679;DHT22;29279;50.858;4.392;2023-04-03T16:46:26;14.90;57.50
43679;DHT22;29279;50.858;4.392;2023-04-03T16:48:52;14.70;58.40
43679;DHT22;29279;50.858;4.392;2023-04-03T16:51:18;14.90;54.70
43679;DHT22;29279;50.858;4.392;2023-04-03T16:53:43;14.70;59.00
43679;DHT22;29279;50.858;4.392;2023-04-03T16:56:09;14.70;55.80
43679;DHT22;29279;50.858;4.392;2023-04-03T16:58:35;14.70;56.20
43679;DHT22;29279;50.858;4.392;2023-04-03T17:01:16;14.70;56.50
43679;DHT22;29279;50.858;4.392;2023-04-03T17:03:43;15.00;56.00
43679;DHT22;29279;50.858;4.392;2023-04-03T17:06:11;14.90;54.70
43679;DHT22;29279;50.858;4.392;2023-04-03T17:08:43;14.80;57.10
43679;DHT22;29279;50.858;4.392;2023-04-03T17:11:08;14.80;56.20
43679;DHT22;29279;50.858;4.392;2023-04-03T17:13:34;14.90;56.20
43679;DHT22;29279;50.858;4.392;2023-04-03T17:16:02;14.90;55.10
43679;DHT22;29279;50.858;4.392;2023-04-03T17:18:31;14.90;55.70
43679;DHT22;29279;50.858;4.392;2023-04-03T17:20:57;14.70;57.10
43679;DHT22;29279;50.858;4.392;2023-04-03T17:23:24;14.70;55.60
43679;DHT22;29279;50.858;4.392;2023-04-03T17:25:51;14.60;58.00
43679;DHT22;29279;50.858;4.392;2023-04-03T17:28:17;14.50;57.90
43679;DHT22;29279;50.858;4.392;2023-04-03T17:30:42;14.50;57.30
43679;DHT22;29279;50.858;4.392;2023-04-03T17:33:08;14.40;55.10
43679;DHT22;29279;50.858;4.392;2023-04-03T17:35:34;14.00;55.90
43679;DHT22;29279;50.858;4.392;2023-04-03T17:38:00;13.70;57.10
43679;DHT22;29279;50.858;4.392;2023-04-03T17:40:25;13.50;58.10
43679;DHT22;29279;50.858;4.392;2023-04-03T17:42:51;13.50;58.90